createdAt,value
2018-06-17T00:01:08.842Z,17.60
2018-06-17T00:06:05.555Z,17.60
2018-06-17T00:08:34.071Z,17.60
2018-06-17T00:11:02.567Z,17.60
2018-06-17T00:13:31.075Z,17.50
2018-06-17T00:15:59.562Z,17.50
2018-06-17T00:18:28.085Z,17.50
2018-06-17T00:20:56.580Z,17.40
2018-06-17T00:23:25.110Z,17.40
2018-06-17T00:25:53.550Z,17.40
2018-06-17T00:28:22.043Z,17.30
2018-06-17T00:30:50.508Z,17.30
2018-06-17T00:33:19.042Z,17.30
2018-06-17T00:35:47.566Z,17.20
2018-06-17T00:38:17.058Z,17.20
2018-06-17T00:40:45.571Z,17.20
2018-06-17T00:43:14.052Z,17.20
2018-06-17T00:45:42.571Z,17.20
2018-06-17T00:48:11.027Z,17.20
2018-06-17T00:50:39.514Z,17.10
2018-06-17T00:53:09.690Z,17.10
2018-06-17T00:55:38.210Z,17.10
2018-06-17T00:58:06.802Z,17.00
2018-06-17T01:00:35.302Z,17.00
2018-06-17T01:03:03.820Z,16.90
2018-06-17T01:05:32.336Z,16.80
2018-06-17T01:08:00.803Z,16.80
2018-06-17T01:10:29.303Z,16.80
2018-06-17T01:12:57.766Z,16.80
2018-06-17T01:15:26.303Z,16.70
2018-06-17T01:17:54.802Z,16.70
2018-06-17T01:22:51.538Z,16.70
2018-06-17T01:25:20.055Z,16.70
2018-06-17T01:27:48.607Z,16.70
2018-06-17T01:30:17.158Z,16.70
2018-06-17T01:32:45.674Z,16.70
2018-06-17T01:35:14.229Z,16.60
2018-06-17T01:37:43.416Z,16.60
2018-06-17T01:40:12.870Z,16.60
2018-06-17T01:42:44.546Z,16.60
2018-06-17T01:45:13.014Z,16.50
2018-06-17T01:47:41.514Z,16.50
2018-06-17T01:50:11.436Z,16.40
2018-06-17T01:52:39.998Z,16.40
2018-06-17T01:55:08.519Z,16.30
2018-06-17T01:57:37.042Z,16.30
2018-06-17T02:00:05.638Z,16.30
2018-06-17T02:02:34.224Z,16.20
2018-06-17T02:07:41.520Z,16.10
2018-06-17T02:10:15.280Z,16.10
2018-06-17T02:12:43.875Z,16.10
2018-06-17T02:15:12.425Z,16.00
2018-06-17T02:17:41.031Z,16.00
2018-06-17T02:20:12.762Z,16.00
2018-06-17T02:22:41.282Z,15.90
2018-06-17T02:25:09.746Z,15.90
2018-06-17T02:27:38.322Z,15.90
2018-06-17T02:30:06.831Z,15.80
2018-06-17T02:32:35.307Z,15.80
2018-06-17T02:35:03.870Z,15.80
2018-06-17T02:37:32.778Z,15.70
2018-06-17T02:40:01.287Z,15.70
2018-06-17T02:42:29.782Z,15.60
2018-06-17T02:45:03.529Z,15.60
2018-06-17T02:47:37.347Z,15.60
2018-06-17T02:50:11.217Z,15.60
2018-06-17T02:52:45.107Z,15.50
2018-06-17T02:55:13.629Z,15.50
2018-06-17T02:57:42.151Z,15.40
2018-06-17T03:00:10.681Z,15.40
2018-06-17T03:02:39.229Z,15.40
2018-06-17T03:05:07.807Z,15.40
2018-06-17T03:07:36.330Z,15.40
2018-06-17T03:10:04.961Z,15.40
2018-06-17T03:12:33.455Z,15.40
2018-06-17T03:15:02.015Z,15.30
2018-06-17T03:17:30.531Z,15.30
2018-06-17T03:19:59.087Z,15.30
2018-06-17T03:22:27.651Z,15.30
2018-06-17T03:25:01.959Z,15.30
2018-06-17T03:27:35.765Z,15.30
2018-06-17T03:30:13.213Z,15.30
2018-06-17T03:32:46.988Z,15.30
2018-06-17T03:35:20.910Z,15.30
2018-06-17T03:37:49.432Z,15.30
2018-06-17T03:42:46.163Z,15.30
2018-06-17T03:45:14.668Z,15.30
2018-06-17T03:47:43.118Z,15.40
2018-06-17T03:50:12.715Z,15.40
2018-06-17T03:52:41.190Z,15.40
2018-06-17T03:55:09.683Z,15.40
2018-06-17T03:57:38.131Z,15.40
2018-06-17T04:00:06.624Z,15.40
2018-06-17T04:02:35.125Z,15.50
2018-06-17T04:05:08.836Z,15.50
2018-06-17T04:07:37.426Z,15.50
2018-06-17T04:10:06.150Z,15.60
2018-06-17T04:12:34.984Z,15.60
2018-06-17T04:15:03.532Z,15.60
2018-06-17T04:17:32.020Z,15.70
2018-06-17T04:20:00.501Z,15.70
2018-06-17T04:22:29.005Z,15.80
2018-06-17T04:24:57.512Z,15.80
2018-06-17T04:27:26.038Z,15.90
2018-06-17T04:29:54.511Z,15.90
2018-06-17T04:32:23.945Z,16.00
2018-06-17T04:34:52.448Z,16.00
2018-06-17T04:37:20.950Z,16.10
2018-06-17T04:39:49.386Z,16.10
2018-06-17T04:42:17.916Z,16.20
2018-06-17T04:44:46.800Z,16.20
2018-06-17T04:47:15.331Z,16.20
2018-06-17T04:49:43.816Z,16.30
2018-06-17T04:52:12.296Z,16.30
2018-06-17T04:54:40.803Z,16.40
2018-06-17T04:57:09.262Z,16.50
2018-06-17T04:59:37.779Z,16.60
2018-06-17T05:02:06.406Z,16.70
2018-06-17T05:04:34.947Z,16.70
2018-06-17T05:07:03.990Z,16.80
2018-06-17T05:09:32.554Z,16.90
2018-06-17T05:12:01.033Z,17.00
2018-06-17T05:14:29.544Z,17.10
2018-06-17T05:16:58.034Z,17.20
2018-06-17T05:19:26.531Z,17.30
2018-06-17T05:21:54.998Z,17.40
2018-06-17T05:24:23.516Z,17.50
2018-06-17T05:26:52.022Z,17.60
2018-06-17T05:29:20.526Z,17.70
2018-06-17T05:31:48.989Z,17.90
2018-06-17T05:34:17.500Z,18.00
2018-06-17T05:36:45.994Z,18.10
2018-06-17T05:39:14.543Z,18.30
2018-06-17T05:41:43.039Z,18.30
2018-06-17T05:44:11.556Z,18.50
2018-06-17T05:46:40.047Z,18.60
2018-06-17T05:49:08.545Z,18.90
2018-06-17T05:51:37.054Z,19.10
2018-06-17T05:54:05.563Z,19.20
2018-06-17T05:56:34.054Z,19.50
2018-06-17T05:59:02.539Z,19.60
2018-06-17T06:01:31.082Z,19.70
2018-06-17T06:03:59.624Z,20.00
2018-06-17T06:06:28.082Z,20.10
2018-06-17T06:08:56.552Z,20.30
2018-06-17T06:11:25.072Z,20.40
2018-06-17T06:13:53.563Z,20.50
2018-06-17T06:16:23.194Z,20.50
2018-06-17T06:18:51.647Z,20.80
2018-06-17T06:21:20.147Z,20.90
2018-06-17T06:23:48.607Z,21.10
2018-06-17T06:26:17.122Z,21.20
2018-06-17T06:28:45.956Z,21.40
2018-06-17T06:31:14.818Z,21.50
2018-06-17T06:33:43.386Z,21.60
2018-06-17T06:36:11.917Z,21.70
2018-06-17T06:38:40.474Z,21.70
2018-06-17T06:41:08.934Z,21.70
2018-06-17T06:43:37.467Z,21.90
2018-06-17T06:46:06.133Z,22.00
2018-06-17T06:48:34.794Z,22.20
2018-06-17T06:53:31.593Z,22.40
2018-06-17T06:56:00.083Z,22.60
2018-06-17T06:58:28.607Z,22.60
2018-06-17T07:00:57.103Z,22.70
2018-06-17T07:03:36.692Z,22.70
2018-06-17T07:06:16.770Z,22.80
2018-06-17T07:08:56.471Z,23.00
2018-06-17T07:11:24.979Z,23.10
2018-06-17T07:13:53.523Z,23.30
2018-06-17T07:16:33.090Z,23.40
2018-06-17T07:19:01.629Z,23.40
2018-06-17T07:21:30.125Z,23.50
2018-06-17T07:23:58.633Z,23.60
2018-06-17T07:26:40.521Z,23.60
2018-06-17T07:29:20.867Z,23.70
2018-06-17T07:31:49.367Z,23.80
2018-06-17T07:34:18.152Z,23.90
2018-06-17T07:36:46.703Z,24.00
2018-06-17T07:40:58.129Z,24.20
2018-06-17T07:43:26.667Z,24.30
2018-06-17T07:45:55.191Z,24.50
2018-06-17T07:49:45.000Z,24.40
2018-06-17T07:52:25.724Z,24.50
2018-06-17T07:54:54.386Z,24.50
2018-06-17T07:57:24.100Z,24.50
2018-06-17T07:59:52.644Z,24.60
2018-06-17T08:02:21.146Z,24.70
2018-06-17T08:04:49.723Z,24.70
2018-06-17T08:07:18.259Z,24.80
2018-06-17T08:09:48.410Z,25.00
2018-06-17T08:12:16.954Z,25.10
2018-06-17T08:14:45.534Z,25.30
2018-06-17T08:17:14.031Z,25.20
2018-06-17T08:19:42.691Z,25.30
2018-06-17T08:22:11.197Z,25.30
2018-06-17T08:24:39.863Z,25.30
2018-06-17T08:27:08.430Z,25.40
2018-06-17T08:29:37.438Z,25.50
2018-06-17T08:32:06.046Z,25.80
2018-06-17T08:34:35.087Z,25.80
2018-06-17T08:37:03.642Z,25.80
2018-06-17T08:39:32.122Z,25.90
2018-06-17T08:42:00.647Z,26.10
2018-06-17T08:44:29.162Z,26.10
2018-06-17T08:46:57.747Z,26.20
2018-06-17T08:49:29.609Z,26.40
2018-06-17T08:51:58.183Z,26.40
2018-06-17T08:54:26.672Z,26.50
2018-06-17T08:56:55.162Z,26.40
2018-06-17T08:59:23.706Z,26.50
2018-06-17T09:04:20.434Z,26.50
2018-06-17T09:06:48.978Z,26.60
2018-06-17T09:09:17.480Z,26.70
2018-06-17T09:11:46.027Z,26.70
2018-06-17T09:14:14.544Z,26.90
2018-06-17T09:16:43.054Z,26.80
2018-06-17T09:19:12.620Z,27.00
2018-06-17T09:21:41.167Z,27.20
2018-06-17T09:24:09.670Z,27.30
2018-06-17T09:26:38.139Z,27.30
2018-06-17T09:29:06.674Z,27.40
2018-06-17T09:31:35.571Z,27.30
2018-06-17T09:34:04.095Z,27.20
2018-06-17T09:36:32.639Z,27.20
2018-06-17T09:39:01.137Z,27.20
2018-06-17T09:41:29.710Z,27.30
2018-06-17T09:43:58.245Z,27.60
2018-06-17T09:46:26.761Z,27.80
2018-06-17T09:48:56.486Z,27.80
2018-06-17T09:51:25.052Z,27.80
2018-06-17T09:53:53.582Z,27.70
2018-06-17T09:56:22.075Z,27.50
2018-06-17T09:58:50.582Z,27.50
2018-06-17T10:01:19.131Z,27.70
2018-06-17T10:03:47.702Z,27.80
2018-06-17T10:06:16.254Z,27.90
2018-06-17T10:08:44.752Z,28.00
2018-06-17T10:11:13.304Z,28.00
2018-06-17T10:13:43.933Z,28.10
2018-06-17T10:16:13.168Z,28.00
2018-06-17T10:18:41.787Z,28.10
2018-06-17T10:21:10.714Z,28.30
2018-06-17T10:23:39.204Z,28.30
2018-06-17T10:26:07.789Z,28.40
2018-06-17T10:28:36.523Z,28.40
2018-06-17T10:31:06.320Z,28.50
2018-06-17T10:33:35.861Z,28.60
2018-06-17T10:36:04.419Z,28.60
2018-06-17T10:38:32.946Z,28.70
2018-06-17T10:41:01.917Z,28.80
2018-06-17T10:43:31.676Z,29.00
2018-06-17T10:46:00.203Z,29.20
2018-06-17T10:48:28.742Z,28.80
2018-06-17T10:50:57.226Z,28.90
2018-06-17T10:53:25.770Z,29.00
2018-06-17T10:55:54.319Z,28.90
2018-06-17T10:58:22.739Z,28.90
2018-06-17T11:00:51.310Z,29.20
2018-06-17T11:03:19.853Z,29.10
2018-06-17T11:05:48.376Z,29.40
2018-06-17T11:08:16.894Z,29.30
2018-06-17T11:10:45.798Z,29.20
2018-06-17T11:13:14.345Z,29.00
2018-06-17T11:15:42.827Z,28.80
2018-06-17T11:18:11.446Z,29.10
2018-06-17T11:20:39.935Z,29.20
2018-06-17T11:23:08.455Z,29.30
2018-06-17T11:25:36.938Z,29.50
2018-06-17T11:28:05.510Z,29.10
2018-06-17T11:30:34.034Z,28.90
2018-06-17T11:33:02.563Z,29.10
2018-06-17T11:35:31.046Z,29.20
2018-06-17T11:37:59.566Z,29.40
2018-06-17T11:40:28.019Z,29.50
2018-06-17T11:42:56.514Z,29.40
2018-06-17T11:45:24.990Z,29.30
2018-06-17T11:47:53.494Z,29.20
2018-06-17T11:50:21.993Z,29.10
2018-06-17T11:52:50.487Z,29.10
2018-06-17T11:55:18.990Z,29.00
2018-06-17T11:57:47.483Z,29.20
2018-06-17T12:00:15.986Z,29.30
2018-06-17T12:02:44.491Z,29.20
2018-06-17T12:05:13.019Z,29.10
2018-06-17T12:07:41.523Z,28.80
2018-06-17T12:10:10.040Z,28.60
2018-06-17T12:12:40.254Z,28.30
2018-06-17T12:15:08.882Z,28.20
2018-06-17T12:17:37.419Z,28.00
2018-06-17T12:20:05.976Z,27.80
2018-06-17T12:22:34.618Z,27.70
2018-06-17T12:25:03.147Z,27.50
2018-06-17T12:27:31.642Z,27.40
2018-06-17T12:30:00.167Z,27.30
2018-06-17T12:32:33.010Z,27.30
2018-06-17T12:35:03.143Z,27.50
2018-06-17T12:37:31.666Z,27.80
2018-06-17T12:40:00.218Z,28.20
2018-06-17T12:42:28.719Z,28.30
2018-06-17T12:44:57.230Z,28.20
2018-06-17T12:47:25.726Z,28.20
2018-06-17T12:49:54.398Z,28.10
2018-06-17T12:52:23.330Z,27.90
2018-06-17T12:54:52.111Z,27.90
2018-06-17T12:57:20.651Z,27.80
2018-06-17T12:59:49.172Z,27.70
2018-06-17T13:02:17.702Z,27.50
2018-06-17T13:04:46.198Z,27.40
2018-06-17T13:07:14.815Z,27.30
2018-06-17T13:09:43.314Z,27.30
2018-06-17T13:12:11.815Z,27.30
2018-06-17T13:14:40.382Z,27.30
2018-06-17T13:17:09.547Z,27.20
2018-06-17T13:19:38.031Z,27.10
2018-06-17T13:22:07.621Z,27.10
2018-06-17T13:24:36.110Z,27.10
2018-06-17T13:27:04.695Z,27.10
2018-06-17T13:29:33.206Z,27.20
2018-06-17T13:32:01.704Z,27.20
2018-06-17T13:34:30.414Z,27.30
2018-06-17T13:36:59.158Z,27.30
2018-06-17T13:39:27.760Z,27.30
2018-06-17T13:41:56.349Z,27.20
2018-06-17T13:44:24.882Z,27.00
2018-06-17T13:46:53.466Z,27.00
2018-06-17T13:49:21.994Z,26.90
2018-06-17T13:51:50.610Z,26.90
2018-06-17T13:54:19.111Z,27.00
2018-06-17T13:56:50.100Z,26.90
2018-06-17T13:59:18.630Z,26.80
2018-06-17T14:01:47.182Z,26.80
2018-06-17T14:04:15.699Z,26.80
2018-06-17T14:06:44.274Z,26.80
2018-06-17T14:09:12.867Z,26.80
2018-06-17T14:11:41.276Z,26.80
2018-06-17T14:14:09.802Z,26.70
2018-06-17T14:16:38.306Z,26.70
2018-06-17T14:19:10.093Z,26.70
2018-06-17T14:21:38.550Z,26.60
2018-06-17T14:24:07.282Z,26.70
2018-06-17T14:26:35.766Z,26.70
2018-06-17T14:29:06.623Z,26.70
2018-06-17T14:31:35.107Z,26.70
2018-06-17T14:34:03.648Z,26.70
2018-06-17T14:36:32.138Z,26.90
2018-06-17T14:39:00.663Z,27.10
2018-06-17T14:44:02.767Z,27.30
2018-06-17T14:46:36.577Z,27.40
2018-06-17T14:49:10.531Z,27.60
2018-06-17T14:51:44.403Z,27.60
2018-06-17T14:54:12.916Z,27.70
2018-06-17T14:56:41.428Z,27.60
2018-06-17T14:59:09.943Z,27.80
2018-06-17T15:01:38.463Z,27.80
2018-06-17T15:04:06.945Z,27.70
2018-06-17T15:06:36.622Z,27.50
2018-06-17T15:09:10.231Z,27.40
2018-06-17T15:11:38.804Z,27.50
2018-06-17T15:14:07.336Z,27.50
2018-06-17T15:16:35.890Z,27.50
2018-06-17T15:19:04.373Z,27.30
2018-06-17T15:21:33.063Z,27.20
2018-06-17T15:24:01.527Z,27.00
2018-06-17T15:26:30.043Z,26.90
2018-06-17T15:28:58.574Z,26.80
2018-06-17T15:31:32.313Z,26.60
2018-06-17T15:34:06.065Z,26.60
2018-06-17T15:36:39.829Z,26.50
2018-06-17T15:39:13.796Z,26.50
2018-06-17T15:41:42.359Z,26.40
2018-06-17T15:44:10.932Z,26.40
2018-06-17T15:46:39.392Z,26.30
2018-06-17T15:49:07.870Z,26.30
2018-06-17T15:51:36.434Z,26.20
2018-06-17T15:54:04.990Z,26.10
2018-06-17T15:56:33.526Z,26.10
2018-06-17T15:59:02.098Z,26.00
2018-06-17T16:01:30.636Z,26.00
2018-06-17T16:06:27.345Z,26.00
2018-06-17T16:08:55.854Z,26.00
2018-06-17T16:11:24.479Z,25.90
2018-06-17T16:13:58.367Z,25.90
2018-06-17T16:16:32.201Z,25.90
2018-06-17T16:19:06.060Z,25.90
2018-06-17T16:21:34.658Z,25.90
2018-06-17T16:24:03.190Z,25.80
2018-06-17T16:26:31.700Z,25.80
2018-06-17T16:29:00.169Z,25.70
2018-06-17T16:31:29.338Z,25.70
2018-06-17T16:33:57.834Z,25.70
2018-06-17T16:36:26.331Z,25.60
2018-06-17T16:38:54.867Z,25.60
2018-06-17T16:41:23.348Z,25.60
2018-06-17T16:43:51.902Z,25.50
2018-06-17T16:46:20.395Z,25.40
2018-06-17T16:48:48.932Z,25.40
2018-06-17T16:51:22.722Z,25.40
2018-06-17T16:53:56.516Z,25.30
2018-06-17T16:56:30.426Z,25.30
2018-06-17T16:59:04.088Z,25.20
2018-06-17T17:01:32.573Z,25.20
2018-06-17T17:04:01.085Z,25.10
2018-06-17T17:06:29.560Z,25.10
2018-06-17T17:08:58.126Z,25.10
2018-06-17T17:11:26.614Z,25.10
2018-06-17T17:13:55.117Z,25.00
2018-06-17T17:16:23.638Z,25.00
2018-06-17T17:18:52.162Z,25.00
2018-06-17T17:21:20.694Z,24.90
2018-06-17T17:23:49.307Z,24.90
2018-06-17T17:26:17.846Z,24.90
2018-06-17T17:28:47.181Z,24.90
2018-06-17T17:31:15.719Z,24.90
2018-06-17T17:33:49.548Z,24.80
2018-06-17T17:36:23.385Z,24.80
2018-06-17T17:38:57.028Z,24.70
2018-06-17T17:41:25.557Z,24.70
2018-06-17T17:43:54.060Z,24.70
2018-06-17T17:46:27.969Z,24.70
2018-06-17T17:48:56.448Z,24.70
2018-06-17T17:51:24.964Z,24.70
2018-06-17T17:53:53.504Z,24.60
2018-06-17T17:56:21.981Z,24.60
2018-06-17T17:58:50.487Z,24.60
2018-06-17T18:01:19.131Z,24.50
2018-06-17T18:03:49.577Z,24.50
2018-06-17T18:06:18.143Z,24.40
2018-06-17T18:08:46.650Z,24.40
2018-06-17T18:11:15.245Z,24.30
2018-06-17T18:13:43.716Z,24.30
2018-06-17T18:16:12.386Z,24.30
2018-06-17T18:18:41.175Z,24.20
2018-06-17T18:21:09.747Z,24.20
2018-06-17T18:23:38.387Z,24.10
2018-06-17T18:26:12.159Z,24.10
2018-06-17T18:28:45.947Z,24.10
2018-06-17T18:31:14.518Z,24.00
2018-06-17T18:33:48.431Z,24.00
2018-06-17T18:36:17.384Z,24.00
2018-06-17T18:38:47.121Z,23.90
2018-06-17T18:41:16.256Z,23.80
2018-06-17T18:43:44.755Z,23.80
2018-06-17T18:46:14.248Z,23.70
2018-06-17T18:48:42.792Z,23.70
2018-06-17T18:51:11.288Z,23.70
2018-06-17T18:53:39.807Z,23.60
2018-06-17T18:56:08.362Z,23.60
2018-06-17T18:58:36.983Z,23.50
2018-06-17T19:01:05.540Z,23.50
2018-06-17T19:03:34.059Z,23.50
2018-06-17T19:06:02.545Z,23.50
2018-06-17T19:08:36.431Z,23.40
2018-06-17T19:11:10.249Z,23.40
2018-06-17T19:13:44.021Z,23.40
2018-06-17T19:16:18.135Z,23.30
2018-06-17T19:18:46.723Z,23.30
2018-06-17T19:21:15.203Z,23.30
2018-06-17T19:23:43.715Z,23.20
2018-06-17T19:26:12.316Z,23.20
2018-06-17T19:28:40.840Z,23.20
2018-06-17T19:31:09.340Z,23.20
2018-06-17T19:33:37.863Z,23.10
2018-06-17T19:36:06.406Z,23.10
2018-06-17T19:38:35.000Z,23.10
2018-06-17T19:41:04.580Z,23.10
2018-06-17T19:43:33.108Z,23.00
2018-06-17T19:46:01.619Z,23.00
2018-06-17T19:48:30.167Z,22.90
2018-06-17T19:51:04.055Z,22.90
2018-06-17T19:53:39.610Z,22.90
2018-06-17T19:56:13.499Z,22.80
2018-06-17T19:58:47.278Z,22.80
2018-06-17T20:01:15.847Z,22.80
2018-06-17T20:03:44.337Z,22.70
2018-06-17T20:06:12.957Z,22.70
2018-06-17T20:08:41.380Z,22.70
2018-06-17T20:11:09.918Z,22.70
2018-06-17T20:13:38.403Z,22.60
2018-06-17T20:16:06.983Z,22.60
2018-06-17T20:18:35.732Z,22.60
2018-06-17T20:21:04.290Z,22.50
2018-06-17T20:23:34.835Z,22.50
2018-06-17T20:26:03.323Z,22.50
2018-06-17T20:28:31.859Z,22.50
2018-06-17T20:31:05.164Z,22.50
2018-06-17T20:33:39.023Z,22.50
2018-06-17T20:36:12.772Z,22.40
2018-06-17T20:38:46.566Z,22.40
2018-06-17T20:41:20.419Z,22.40
2018-06-17T20:43:50.583Z,22.40
2018-06-17T20:46:19.098Z,22.30
2018-06-17T20:48:48.363Z,22.30
2018-06-17T20:51:17.183Z,22.30
2018-06-17T20:53:45.699Z,22.20
2018-06-17T20:56:14.183Z,22.30
2018-06-17T20:58:42.694Z,22.20
2018-06-17T21:01:12.923Z,22.20
2018-06-17T21:03:41.443Z,22.20
2018-06-17T21:06:09.935Z,22.20
2018-06-17T21:08:38.459Z,22.10
2018-06-17T21:11:06.943Z,22.20
2018-06-17T21:13:35.427Z,22.10
2018-06-17T21:16:03.978Z,22.10
2018-06-17T21:18:38.286Z,22.10
2018-06-17T21:21:12.198Z,22.10
2018-06-17T21:23:45.907Z,22.20
2018-06-17T21:26:19.766Z,22.30
2018-06-17T21:28:48.227Z,22.30
2018-06-17T21:31:16.734Z,22.30
2018-06-17T21:33:45.195Z,22.40
2018-06-17T21:36:13.720Z,22.40
2018-06-17T21:41:10.487Z,22.20
2018-06-17T21:43:39.018Z,22.20
2018-06-17T21:46:07.595Z,22.20
2018-06-17T21:48:36.085Z,22.20
2018-06-17T21:51:04.596Z,22.10
2018-06-17T21:56:01.747Z,22.00
2018-06-17T21:58:35.443Z,22.00
2018-06-17T22:01:04.024Z,21.90
2018-06-17T22:03:32.995Z,21.80
2018-06-17T22:06:01.491Z,21.80
2018-06-17T22:08:35.427Z,21.70
2018-06-17T22:11:11.497Z,21.70
2018-06-17T22:13:45.271Z,21.70
2018-06-17T22:16:19.045Z,21.60
2018-06-17T22:18:47.551Z,21.60
2018-06-17T22:21:16.050Z,21.50
2018-06-17T22:23:44.546Z,21.40
2018-06-17T22:26:13.046Z,21.40
2018-06-17T22:28:41.546Z,21.30
2018-06-17T22:31:10.286Z,21.30
2018-06-17T22:33:38.774Z,21.30
2018-06-17T22:36:07.283Z,21.30
2018-06-17T22:38:35.765Z,21.30
2018-06-17T22:41:05.275Z,21.30
2018-06-17T22:43:33.772Z,21.30
2018-06-17T22:46:02.313Z,21.30
2018-06-17T22:48:30.782Z,21.30
2018-06-17T22:50:59.270Z,21.20
2018-06-17T22:53:39.346Z,21.20
2018-06-17T22:56:12.076Z,21.10
2018-06-17T22:58:45.807Z,21.10
2018-06-17T23:03:25.382Z,21.00
2018-06-17T23:08:32.876Z,21.00
2018-06-17T23:11:01.362Z,21.00
2018-06-17T23:13:29.885Z,21.00
2018-06-17T23:15:58.408Z,21.10
2018-06-17T23:18:26.905Z,21.10
2018-06-17T23:20:55.725Z,21.20
2018-06-17T23:23:24.236Z,21.20
2018-06-17T23:25:52.758Z,21.20
2018-06-17T23:28:21.263Z,21.20
2018-06-17T23:30:49.736Z,21.20
2018-06-17T23:33:18.274Z,21.20
2018-06-17T23:35:46.743Z,21.10
2018-06-17T23:38:15.933Z,21.10
2018-06-17T23:40:44.426Z,21.00
2018-06-17T23:43:12.986Z,21.00
2018-06-17T23:45:46.886Z,21.00
2018-06-17T23:48:21.526Z,21.00
2018-06-17T23:50:55.596Z,20.90
2018-06-17T23:53:29.242Z,20.90
2018-06-17T23:56:03.101Z,20.90
2018-06-17T23:58:31.680Z,20.90
